sensor_id;sensor_type;location;lat;lon;timestamp;pressure;altitude;pressure_sealevel;temperature;humidity
33697;BME280;20031;43.416;23.232;2022-12-10T00:00:19;99358.03;;;5.70;100.00
33697;BME280;20031;43.416;23.232;2022-12-10T00:02:44;99343.34;;;5.70;100.00
33697;BME280;20031;43.416;23.232;2022-12-10T00:05:09;99356.53;;;5.67;100.00
33697;BME280;20031;43.416;23.232;2022-12-10T00:07:35;99338.19;;;5.70;100.00
33697;BME280;20031;43.416;23.232;2022-12-10T00:10:00;99340.59;;;5.72;100.00
33697;BME280;20031;43.416;23.232;2022-12-10T00:12:26;99341.44;;;5.72;100.00
33697;BME280;20031;43.416;23.232;2022-12-10T00:14:51;99344.16;;;5.71;100.00
33697;BME280;20031;43.416;23.232;2022-12-10T00:17:17;99343.63;;;5.67;100.00
33697;BME280;20031;43.416;23.232;2022-12-10T00:19:42;99344.59;;;5.66;100.00
33697;BME280;20031;43.416;23.232;2022-12-10T00:22:07;99354.09;;;5.66;100.00
33697;BME280;20031;43.416;23.232;2022-12-10T00:24:33;99360.38;;;5.63;100.00
33697;BME280;20031;43.416;23.232;2022-12-10T00:26:58;99354.25;;;5.64;100.00
33697;BME280;20031;43.416;23.232;2022-12-10T00:29:24;99361.06;;;5.65;100.00
33697;BME280;20031;43.416;23.232;2022-12-10T00:31:50;99357.63;;;5.65;100.00
33697;BME280;20031;43.416;23.232;2022-12-10T00:34:15;99353.31;;;5.65;100.00
33697;BME280;20031;43.416;23.232;2022-12-10T00:36:45;99365.13;;;5.68;100.00
33697;BME280;20031;43.416;23.232;2022-12-10T00:39:16;99384.16;;;5.67;100.00
33697;BME280;20031;43.416;23.232;2022-12-10T00:41:42;99370.56;;;5.65;100.00
33697;BME280;20031;43.416;23.232;2022-12-10T00:44:08;99343.13;;;5.64;100.00
33697;BME280;20031;43.416;23.232;2022-12-10T00:46:33;99349.88;;;5.65;100.00
33697;BME280;20031;43.416;23.232;2022-12-10T00:48:59;99326.66;;;5.65;100.00
33697;BME280;20031;43.416;23.232;2022-12-10T00:51:26;99336.03;;;5.66;100.00
33697;BME280;20031;43.416;23.232;2022-12-10T00:53:53;99339.28;;;5.68;100.00
33697;BME280;20031;43.416;23.232;2022-12-10T00:56:24;99325.41;;;5.69;100.00
33697;BME280;20031;43.416;23.232;2022-12-10T00:58:50;99324.31;;;5.71;100.00
33697;BME280;20031;43.416;23.232;2022-12-10T01:03:49;99337.88;;;5.73;100.00
33697;BME280;20031;43.416;23.232;2022-12-10T01:08:45;99333.00;;;5.70;100.00
33697;BME280;20031;43.416;23.232;2022-12-10T01:11:13;99343.34;;;5.70;100.00
33697;BME280;20031;43.416;23.232;2022-12-10T01:13:40;99349.47;;;5.69;100.00
33697;BME280;20031;43.416;23.232;2022-12-10T01:16:08;99339.41;;;5.66;100.00
33697;BME280;20031;43.416;23.232;2022-12-10T01:18:35;99339.28;;;5.68;100.00
33697;BME280;20031;43.416;23.232;2022-12-10T01:21:07;99342.00;;;5.66;100.00
33697;BME280;20031;43.416;23.232;2022-12-10T01:23:38;99336.84;;;5.66;100.00
33697;BME280;20031;43.416;23.232;2022-12-10T01:26:06;99337.50;;;5.68;100.00
33697;BME280;20031;43.416;23.232;2022-12-10T01:28:34;99321.06;;;5.69;100.00
33697;BME280;20031;43.416;23.232;2022-12-10T01:31:04;99320.09;;;5.70;100.00
33697;BME280;20031;43.416;23.232;2022-12-10T01:33:31;99322.38;;;5.73;100.00
33697;BME280;20031;43.416;23.232;2022-12-10T01:36:08;99308.56;;;5.74;100.00
33697;BME280;20031;43.416;23.232;2022-12-10T01:38:35;99311.25;;;5.73;100.00
33697;BME280;20031;43.416;23.232;2022-12-10T01:41:01;99299.13;;;5.73;100.00
33697;BME280;20031;43.416;23.232;2022-12-10T01:43:27;99315.47;;;5.74;100.00
33697;BME280;20031;43.416;23.232;2022-12-10T01:45:53;99298.88;;;5.76;100.00
33697;BME280;20031;43.416;23.232;2022-12-10T01:48:19;99282.28;;;5.79;100.00
33697;BME280;20031;43.416;23.232;2022-12-10T01:50:44;99290.84;;;5.79;100.00
33697;BME280;20031;43.416;23.232;2022-12-10T01:53:11;99270.47;;;5.76;100.00
33697;BME280;20031;43.416;23.232;2022-12-10T01:55:50;99244.63;;;5.76;100.00
33697;BME280;20031;43.416;23.232;2022-12-10T01:58:17;99263.69;;;5.75;100.00
33697;BME280;20031;43.416;23.232;2022-12-10T02:01:20;99244.63;;;5.76;100.00
33697;BME280;20031;43.416;23.232;2022-12-10T02:06:45;99246.94;;;5.79;100.00
33697;BME280;20031;43.416;23.232;2022-12-10T02:10:04;99244.47;;;5.78;100.00
33697;BME280;20031;43.416;23.232;2022-12-10T02:12:21;99253.06;;;5.78;100.00
33697;BME280;20031;43.416;23.232;2022-12-10T02:15:10;99247.88;;;5.78;100.00
33697;BME280;20031;43.416;23.232;2022-12-10T02:18:36;99247.59;;;5.81;100.00
33697;BME280;20031;43.416;23.232;2022-12-10T02:21:15;99244.34;;;5.79;100.00
33697;BME280;20031;43.416;23.232;2022-12-10T02:23:46;99243.69;;;5.77;100.00
33697;BME280;20031;43.416;23.232;2022-12-10T02:26:24;99256.06;;;5.74;100.00
33697;BME280;20031;43.416;23.232;2022-12-10T02:31:25;99233.66;;;5.74;100.00
33697;BME280;20031;43.416;23.232;2022-12-10T02:33:55;99238.81;;;5.74;100.00
33697;BME280;20031;43.416;23.232;2022-12-10T02:36:23;99228.09;;;5.69;100.00
33697;BME280;20031;43.416;23.232;2022-12-10T02:38:51;99228.75;;;5.71;100.00
33697;BME280;20031;43.416;23.232;2022-12-10T02:41:25;99228.91;;;5.70;100.00
33697;BME280;20031;43.416;23.232;2022-12-10T02:43:54;99235.00;;;5.69;100.00
33697;BME280;20031;43.416;23.232;2022-12-10T02:46:22;99237.88;;;5.66;100.00
33697;BME280;20031;43.416;23.232;2022-12-10T02:48:50;99239.81;;;5.64;100.00
33697;BME280;20031;43.416;23.232;2022-12-10T02:51:16;99246.75;;;5.63;100.00
33697;BME280;20031;43.416;23.232;2022-12-10T02:53:45;99253.38;;;5.66;100.00
33697;BME280;20031;43.416;23.232;2022-12-10T02:56:39;99269.69;;;5.66;100.00
33697;BME280;20031;43.416;23.232;2022-12-10T02:59:28;99261.94;;;5.66;100.00
33697;BME280;20031;43.416;23.232;2022-12-10T03:02:16;99261.28;;;5.64;100.00
33697;BME280;20031;43.416;23.232;2022-12-10T03:05:00;99258.84;;;5.63;100.00
33697;BME280;20031;43.416;23.232;2022-12-10T03:07:36;99251.91;;;5.63;100.00
33697;BME280;20031;43.416;23.232;2022-12-10T03:12:48;99267.69;;;5.60;100.00
33697;BME280;20031;43.416;23.232;2022-12-10T03:15:16;99248.97;;;5.58;100.00
33697;BME280;20031;43.416;23.232;2022-12-10T03:17:45;99241.50;;;5.56;100.00
33697;BME280;20031;43.416;23.232;2022-12-10T03:20:13;99229.41;;;5.56;100.00
33697;BME280;20031;43.416;23.232;2022-12-10T03:22:40;99233.78;;;5.56;100.00
33697;BME280;20031;43.416;23.232;2022-12-10T03:25:09;99239.88;;;5.55;100.00
33697;BME280;20031;43.416;23.232;2022-12-10T03:27:37;99221.81;;;5.55;100.00
33697;BME280;20031;43.416;23.232;2022-12-10T03:30:04;99229.56;;;5.55;100.00
33697;BME280;20031;43.416;23.232;2022-12-10T03:32:30;99222.75;;;5.54;100.00
33697;BME280;20031;43.416;23.232;2022-12-10T03:34:57;99210.81;;;5.53;100.00
33697;BME280;20031;43.416;23.232;2022-12-10T03:37:24;99219.38;;;5.53;100.00
33697;BME280;20031;43.416;23.232;2022-12-10T03:39:51;99227.13;;;5.53;100.00
33697;BME280;20031;43.416;23.232;2022-12-10T03:42:16;99216.78;;;5.53;100.00
33697;BME280;20031;43.416;23.232;2022-12-10T03:44:42;99228.91;;;5.53;100.00
33697;BME280;20031;43.416;23.232;2022-12-10T03:47:12;99222.75;;;5.54;100.00
33697;BME280;20031;43.416;23.232;2022-12-10T03:49:40;99207.25;;;5.54;100.00
33697;BME280;20031;43.416;23.232;2022-12-10T03:52:06;99203.59;;;5.56;100.00
33697;BME280;20031;43.416;23.232;2022-12-10T03:54:31;99212.13;;;5.56;100.00
33697;BME280;20031;43.416;23.232;2022-12-10T03:56:57;99201.81;;;5.56;100.00
33697;BME280;20031;43.416;23.232;2022-12-10T03:59:22;99212.44;;;5.54;100.00
33697;BME280;20031;43.416;23.232;2022-12-10T04:01:48;99210.69;;;5.54;100.00
33697;BME280;20031;43.416;23.232;2022-12-10T04:04:13;99215.69;;;5.56;100.00
33697;BME280;20031;43.416;23.232;2022-12-10T04:06:39;99219.06;;;5.56;100.00
33697;BME280;20031;43.416;23.232;2022-12-10T04:09:05;99227.91;;;5.54;100.00
33697;BME280;20031;43.416;23.232;2022-12-10T04:11:31;99227.13;;;5.53;100.00
33697;BME280;20031;43.416;23.232;2022-12-10T04:13:56;99229.56;;;5.55;100.00
33697;BME280;20031;43.416;23.232;2022-12-10T04:16:41;99224.38;;;5.55;100.00
33697;BME280;20031;43.416;23.232;2022-12-10T04:19:09;99230.50;;;5.54;100.00
33697;BME280;20031;43.416;23.232;2022-12-10T04:21:37;99224.38;;;5.55;100.00
33697;BME280;20031;43.416;23.232;2022-12-10T04:24:22;99251.84;;;5.56;100.00
33697;BME280;20031;43.416;23.232;2022-12-10T04:27:12;99243.13;;;5.56;100.00
33697;BME280;20031;43.416;23.232;2022-12-10T04:29:39;99225.72;;;5.58;100.00
33697;BME280;20031;43.416;23.232;2022-12-10T04:32:04;99234.28;;;5.59;100.00
33697;BME280;20031;43.416;23.232;2022-12-10T04:34:30;99229.94;;;5.59;100.00
33697;BME280;20031;43.416;23.232;2022-12-10T04:36:57;99229.78;;;5.61;100.00
33697;BME280;20031;43.416;23.232;2022-12-10T04:39:23;99241.72;;;5.62;100.00
33697;BME280;20031;43.416;23.232;2022-12-10T04:41:49;99251.25;;;5.61;100.00
33697;BME280;20031;43.416;23.232;2022-12-10T04:44:15;99241.56;;;5.63;100.00
33697;BME280;20031;43.416;23.232;2022-12-10T04:46:40;99254.50;;;5.63;100.00
33697;BME280;20031;43.416;23.232;2022-12-10T04:49:06;99245.00;;;5.64;100.00
33697;BME280;20031;43.416;23.232;2022-12-10T04:51:32;99256.66;;;5.68;100.00
33697;BME280;20031;43.416;23.232;2022-12-10T04:53:58;99254.06;;;5.68;100.00
33697;BME280;20031;43.416;23.232;2022-12-10T04:56:24;99255.03;;;5.67;100.00
33697;BME280;20031;43.416;23.232;2022-12-10T04:58:49;99246.31;;;5.68;100.00
33697;BME280;20031;43.416;23.232;2022-12-10T05:01:16;99248.75;;;5.69;100.00
33697;BME280;20031;43.416;23.232;2022-12-10T05:03:43;99250.34;;;5.70;100.00
33697;BME280;20031;43.416;23.232;2022-12-10T05:06:11;99235.41;;;5.74;100.00
33697;BME280;20031;43.416;23.232;2022-12-10T05:08:38;99241.38;;;5.74;100.00
33697;BME280;20031;43.416;23.232;2022-12-10T05:11:15;99231.88;;;5.75;100.00
33697;BME280;20031;43.416;23.232;2022-12-10T05:13:41;99262.97;;;5.73;100.00
33697;BME280;20031;43.416;23.232;2022-12-10T05:16:09;99244.91;;;5.73;100.00
33697;BME280;20031;43.416;23.232;2022-12-10T05:18:36;99250.88;;;5.74;100.00
33697;BME280;20031;43.416;23.232;2022-12-10T05:21:07;99242.88;;;5.77;100.00
33697;BME280;20031;43.416;23.232;2022-12-10T05:23:35;99251.44;;;5.77;100.00
33697;BME280;20031;43.416;23.232;2022-12-10T05:28:37;99242.03;;;5.76;100.00
33697;BME280;20031;43.416;23.232;2022-12-10T05:31:03;99247.88;;;5.78;100.00
33697;BME280;20031;43.416;23.232;2022-12-10T05:33:30;99235.63;;;5.80;100.00
33697;BME280;20031;43.416;23.232;2022-12-10T05:36:00;99237.56;;;5.78;100.00
33697;BME280;20031;43.416;23.232;2022-12-10T05:38:27;99228.88;;;5.79;100.00
33697;BME280;20031;43.416;23.232;2022-12-10T05:40:53;99224.19;;;5.83;100.00
33697;BME280;20031;43.416;23.232;2022-12-10T05:43:19;99219.53;;;5.86;100.00
33697;BME280;20031;43.416;23.232;2022-12-10T05:45:45;99201.44;;;5.86;100.00
33697;BME280;20031;43.416;23.232;2022-12-10T05:48:12;99205.66;;;5.87;100.00
33697;BME280;20031;43.416;23.232;2022-12-10T05:50:39;99196.28;;;5.86;100.00
33697;BME280;20031;43.416;23.232;2022-12-10T05:53:04;99188.38;;;5.88;100.00
33697;BME280;20031;43.416;23.232;2022-12-10T05:55:30;99192.75;;;5.87;100.00
33697;BME280;20031;43.416;23.232;2022-12-10T05:57:57;99192.09;;;5.85;100.00
33697;BME280;20031;43.416;23.232;2022-12-10T06:00:22;99186.78;;;5.87;100.00
33697;BME280;20031;43.416;23.232;2022-12-10T06:02:49;99186.94;;;5.85;100.00
33697;BME280;20031;43.416;23.232;2022-12-10T06:05:15;99192.25;;;5.84;100.00
33697;BME280;20031;43.416;23.232;2022-12-10T06:07:41;99199.69;;;5.87;100.00
33697;BME280;20031;43.416;23.232;2022-12-10T06:10:07;99194.38;;;5.88;100.00
33697;BME280;20031;43.416;23.232;2022-12-10T06:12:32;99191.09;;;5.86;100.00
33697;BME280;20031;43.416;23.232;2022-12-10T06:14:58;99179.97;;;5.86;100.00
33697;BME280;20031;43.416;23.232;2022-12-10T06:17:23;99171.44;;;5.85;100.00
33697;BME280;20031;43.416;23.232;2022-12-10T06:19:49;99172.88;;;5.88;100.00
33697;BME280;20031;43.416;23.232;2022-12-10T06:22:14;99178.56;;;5.91;100.00
33697;BME280;20031;43.416;23.232;2022-12-10T06:24:40;99190.22;;;5.95;100.00
33697;BME280;20031;43.416;23.232;2022-12-10T06:27:05;99195.09;;;5.98;100.00
33697;BME280;20031;43.416;23.232;2022-12-10T06:29:31;99201.59;;;6.02;100.00
33697;BME280;20031;43.416;23.232;2022-12-10T06:31:56;99213.22;;;6.06;100.00
33697;BME280;20031;43.416;23.232;2022-12-10T06:34:22;99211.63;;;6.05;100.00
33697;BME280;20031;43.416;23.232;2022-12-10T06:36:47;99213.75;;;6.09;100.00
33697;BME280;20031;43.416;23.232;2022-12-10T06:39:13;99194.56;;;6.12;100.00
33697;BME280;20031;43.416;23.232;2022-12-10T06:41:38;99210.06;;;6.12;100.00
33697;BME280;20031;43.416;23.232;2022-12-10T06:44:07;99218.75;;;6.11;100.00
33697;BME280;20031;43.416;23.232;2022-12-10T06:46:32;99216.97;;;6.11;100.00
33697;BME280;20031;43.416;23.232;2022-12-10T06:48:58;99211.81;;;6.11;100.00
33697;BME280;20031;43.416;23.232;2022-12-10T06:51:24;99207.47;;;6.12;100.00
33697;BME280;20031;43.416;23.232;2022-12-10T06:53:50;99210.22;;;6.10;100.00
33697;BME280;20031;43.416;23.232;2022-12-10T06:56:17;99219.72;;;6.10;100.00
33697;BME280;20031;43.416;23.232;2022-12-10T06:58:44;99211.16;;;6.09;100.00
33697;BME280;20031;43.416;23.232;2022-12-10T07:01:16;99205.31;;;6.07;100.00
33697;BME280;20031;43.416;23.232;2022-12-10T07:03:43;99205.47;;;6.06;100.00
33697;BME280;20031;43.416;23.232;2022-12-10T07:06:10;99207.91;;;6.07;100.00
33697;BME280;20031;43.416;23.232;2022-12-10T07:08:36;99198.25;;;6.09;100.00
33697;BME280;20031;43.416;23.232;2022-12-10T07:11:06;99193.72;;;6.11;100.00
33697;BME280;20031;43.416;23.232;2022-12-10T07:13:31;99187.44;;;6.14;100.00
33697;BME280;20031;43.416;23.232;2022-12-10T07:15:57;99183.06;;;6.14;100.00
33697;BME280;20031;43.416;23.232;2022-12-10T07:18:22;99183.06;;;6.14;100.00
33697;BME280;20031;43.416;23.232;2022-12-10T07:20:48;99177.09;;;6.14;100.00
33697;BME280;20031;43.416;23.232;2022-12-10T07:23:13;99166.75;;;6.14;100.00
33697;BME280;20031;43.416;23.232;2022-12-10T07:25:39;99187.44;;;6.14;100.00
33697;BME280;20031;43.416;23.232;2022-12-10T07:28:04;99173.56;;;6.15;100.00
33697;BME280;20031;43.416;23.232;2022-12-10T07:30:29;99188.78;;;6.18;100.00
33697;BME280;20031;43.416;23.232;2022-12-10T07:32:55;99179.06;;;6.20;100.00
33697;BME280;20031;43.416;23.232;2022-12-10T07:35:20;99182.97;;;6.24;100.00
33697;BME280;20031;43.416;23.232;2022-12-10T07:37:46;99181.88;;;6.26;100.00
33697;BME280;20031;43.416;23.232;2022-12-10T07:40:11;99193.53;;;6.30;100.00
33697;BME280;20031;43.416;23.232;2022-12-10T07:42:37;99195.13;;;6.31;100.00
33697;BME280;20031;43.416;23.232;2022-12-10T07:45:02;99190.50;;;6.35;100.00
33697;BME280;20031;43.416;23.232;2022-12-10T07:47:28;99185.66;;;6.40;100.00
33697;BME280;20031;43.416;23.232;2022-12-10T07:49:54;99185.19;;;6.44;100.00
33697;BME280;20031;43.416;23.232;2022-12-10T07:52:19;99180.53;;;6.48;100.00
33697;BME280;20031;43.416;23.232;2022-12-10T07:54:45;99169.88;;;6.51;100.00
33697;BME280;20031;43.416;23.232;2022-12-10T07:57:10;99197.72;;;6.57;100.00
33697;BME280;20031;43.416;23.232;2022-12-10T07:59:36;99194.00;;;6.59;100.00
33697;BME280;20031;43.416;23.232;2022-12-10T08:02:01;99182.56;;;6.61;100.00
33697;BME280;20031;43.416;23.232;2022-12-10T08:04:30;99178.66;;;6.65;100.00
33697;BME280;20031;43.416;23.232;2022-12-10T08:06:56;99177.56;;;6.68;100.00
33697;BME280;20031;43.416;23.232;2022-12-10T08:09:21;99163.03;;;6.75;100.00
33697;BME280;20031;43.416;23.232;2022-12-10T08:11:47;99162.88;;;6.76;100.00
33697;BME280;20031;43.416;23.232;2022-12-10T08:14:12;99183.94;;;6.81;100.00
33697;BME280;20031;43.416;23.232;2022-12-10T08:16:37;99174.53;;;6.88;100.00
33697;BME280;20031;43.416;23.232;2022-12-10T08:19:03;99181.88;;;6.93;100.00
33697;BME280;20031;43.416;23.232;2022-12-10T08:21:31;99166.19;;;7.02;100.00
33697;BME280;20031;43.416;23.232;2022-12-10T08:23:57;99163.31;;;7.13;100.00
33697;BME280;20031;43.416;23.232;2022-12-10T08:26:26;99171.25;;;7.27;100.00
33697;BME280;20031;43.416;23.232;2022-12-10T08:28:53;99164.78;;;7.39;99.99
33697;BME280;20031;43.416;23.232;2022-12-10T08:31:20;99172.75;;;7.46;100.00
33697;BME280;20031;43.416;23.232;2022-12-10T08:33:46;99156.06;;;7.56;100.00
33697;BME280;20031;43.416;23.232;2022-12-10T08:36:13;99152.69;;;7.79;100.00
33697;BME280;20031;43.416;23.232;2022-12-10T08:38:40;99140.81;;;8.01;99.92
33697;BME280;20031;43.416;23.232;2022-12-10T08:41:16;99120.06;;;8.16;100.00
33697;BME280;20031;43.416;23.232;2022-12-10T08:43:42;99114.66;;;8.34;99.47
33697;BME280;20031;43.416;23.232;2022-12-10T08:46:09;99116.41;;;8.49;98.99
33697;BME280;20031;43.416;23.232;2022-12-10T08:48:35;99124.69;;;8.53;98.91
33697;BME280;20031;43.416;23.232;2022-12-10T08:51:02;99133.78;;;8.41;97.82
33697;BME280;20031;43.416;23.232;2022-12-10T08:53:27;99116.28;;;8.35;97.44
33697;BME280;20031;43.416;23.232;2022-12-10T08:55:53;99104.63;;;8.31;97.51
33697;BME280;20031;43.416;23.232;2022-12-10T08:58:19;99088.47;;;8.21;97.08
33697;BME280;20031;43.416;23.232;2022-12-10T09:00:45;99089.28;;;8.13;96.63
33697;BME280;20031;43.416;23.232;2022-12-10T09:03:10;99083.63;;;8.02;96.79
33697;BME280;20031;43.416;23.232;2022-12-10T09:05:36;99094.00;;;7.94;96.17
33697;BME280;20031;43.416;23.232;2022-12-10T09:08:02;99089.81;;;7.93;96.21
33697;BME280;20031;43.416;23.232;2022-12-10T09:10:28;99095.63;;;7.95;96.45
33697;BME280;20031;43.416;23.232;2022-12-10T09:12:53;99101.63;;;7.96;95.95
33697;BME280;20031;43.416;23.232;2022-12-10T09:15:19;99103.75;;;7.92;96.27
33697;BME280;20031;43.416;23.232;2022-12-10T09:17:44;99107.28;;;7.91;96.03
33697;BME280;20031;43.416;23.232;2022-12-10T09:20:10;99106.66;;;8.13;96.46
33697;BME280;20031;43.416;23.232;2022-12-10T09:22:35;99103.31;;;8.43;95.97
33697;BME280;20031;43.416;23.232;2022-12-10T09:25:04;99103.53;;;8.63;95.50
33697;BME280;20031;43.416;23.232;2022-12-10T09:27:30;99105.22;;;8.79;94.89
33697;BME280;20031;43.416;23.232;2022-12-10T09:29:56;99091.34;;;8.94;94.72
33697;BME280;20031;43.416;23.232;2022-12-10T09:32:21;99090.06;;;8.90;93.70
33697;BME280;20031;43.416;23.232;2022-12-10T09:34:50;99108.59;;;8.87;93.54
33697;BME280;20031;43.416;23.232;2022-12-10T09:37:16;99098.75;;;9.05;93.02
33697;BME280;20031;43.416;23.232;2022-12-10T09:39:41;99092.19;;;9.17;93.29
33697;BME280;20031;43.416;23.232;2022-12-10T09:42:17;99095.94;;;9.37;92.71
33697;BME280;20031;43.416;23.232;2022-12-10T09:44:53;99084.06;;;9.57;91.89
33697;BME280;20031;43.416;23.232;2022-12-10T09:47:35;99066.44;;;9.66;91.35
33697;BME280;20031;43.416;23.232;2022-12-10T09:50:28;99059.59;;;10.02;90.66
33697;BME280;20031;43.416;23.232;2022-12-10T09:52:54;99048.56;;;10.29;90.05
33697;BME280;20031;43.416;23.232;2022-12-10T09:55:31;99051.94;;;10.29;88.79
33697;BME280;20031;43.416;23.232;2022-12-10T09:57:59;99046.31;;;10.26;87.52
33697;BME280;20031;43.416;23.232;2022-12-10T10:00:38;99030.78;;;10.04;86.73
33697;BME280;20031;43.416;23.232;2022-12-10T10:03:05;99019.81;;;9.94;86.99
33697;BME280;20031;43.416;23.232;2022-12-10T10:05:35;99012.34;;;9.99;86.87
33697;BME280;20031;43.416;23.232;2022-12-10T10:08:04;99004.06;;;9.95;86.51
33697;BME280;20031;43.416;23.232;2022-12-10T10:10:36;99004.84;;;9.81;86.10
33697;BME280;20031;43.416;23.232;2022-12-10T10:15:34;98995.53;;;10.01;86.17
33697;BME280;20031;43.416;23.232;2022-12-10T10:18:30;98999.94;;;9.86;84.92
33697;BME280;20031;43.416;23.232;2022-12-10T10:20:59;99025.94;;;9.72;85.29
33697;BME280;20031;43.416;23.232;2022-12-10T10:23:25;99023.41;;;9.64;85.21
33697;BME280;20031;43.416;23.232;2022-12-10T10:25:51;99026.19;;;9.63;85.07
33697;BME280;20031;43.416;23.232;2022-12-10T10:28:20;99001.97;;;9.62;85.23
33697;BME280;20031;43.416;23.232;2022-12-10T10:30:45;99000.34;;;9.61;85.14
33697;BME280;20031;43.416;23.232;2022-12-10T10:33:13;99001.34;;;9.60;85.50
33697;BME280;20031;43.416;23.232;2022-12-10T10:35:53;99008.09;;;9.69;86.10
33697;BME280;20031;43.416;23.232;2022-12-10T10:38:26;99001.25;;;9.68;85.84
33697;BME280;20031;43.416;23.232;2022-12-10T10:40:57;98992.31;;;9.70;85.68
33697;BME280;20031;43.416;23.232;2022-12-10T10:43:23;98997.34;;;9.72;85.82
33697;BME280;20031;43.416;23.232;2022-12-10T10:46:13;98972.22;;;9.79;86.05
33697;BME280;20031;43.416;23.232;2022-12-10T10:48:40;98970.25;;;9.95;86.83
33697;BME280;20031;43.416;23.232;2022-12-10T10:56:28;98968.72;;;9.72;85.65
33697;BME280;20031;43.416;23.232;2022-12-10T11:01:49;98960.09;;;9.57;86.54
33697;BME280;20031;43.416;23.232;2022-12-10T11:04:17;98967.28;;;9.55;86.73
33697;BME280;20031;43.416;23.232;2022-12-10T11:06:44;98970.25;;;9.66;87.34
33697;BME280;20031;43.416;23.232;2022-12-10T11:09:23;98965.78;;;9.75;87.10
33697;BME280;20031;43.416;23.232;2022-12-10T11:11:51;98959.41;;;9.77;86.95
33697;BME280;20031;43.416;23.232;2022-12-10T11:14:26;98948.66;;;9.95;87.30
33697;BME280;20031;43.416;23.232;2022-12-10T11:19:41;98932.19;;;10.44;86.25
33697;BME280;20031;43.416;23.232;2022-12-10T11:22:33;98940.38;;;10.41;85.88
33697;BME280;20031;43.416;23.232;2022-12-10T11:24:59;98937.66;;;10.49;85.58
33697;BME280;20031;43.416;23.232;2022-12-10T11:30:09;98919.34;;;10.57;84.87
33697;BME280;20031;43.416;23.232;2022-12-10T11:41:42;98891.38;;;10.65;84.29
33697;BME280;20031;43.416;23.232;2022-12-10T11:47:24;98897.53;;;10.22;84.31
33697;BME280;20031;43.416;23.232;2022-12-10T11:52:53;98904.78;;;10.06;85.66
33697;BME280;20031;43.416;23.232;2022-12-10T12:14:30;98859.50;;;10.01;86.57
33697;BME280;20031;43.416;23.232;2022-12-10T12:17:32;98836.38;;;10.06;87.06
33697;BME280;20031;43.416;23.232;2022-12-10T12:20:30;98833.56;;;10.07;87.23
33697;BME280;20031;43.416;23.232;2022-12-10T12:23:08;98829.59;;;10.11;86.69
33697;BME280;20031;43.416;23.232;2022-12-10T12:25:42;98829.97;;;10.08;86.65
33697;BME280;20031;43.416;23.232;2022-12-10T12:28:41;98820.31;;;10.02;86.78
33697;BME280;20031;43.416;23.232;2022-12-10T12:31:15;98830.53;;;9.89;86.38
33697;BME280;20031;43.416;23.232;2022-12-10T12:34:05;98828.22;;;9.80;86.51
33697;BME280;20031;43.416;23.232;2022-12-10T12:36:36;98833.75;;;9.70;86.81
33697;BME280;20031;43.416;23.232;2022-12-10T12:50:33;98850.44;;;9.33;87.77
33697;BME280;20031;43.416;23.232;2022-12-10T12:53:12;98832.69;;;9.22;87.63
33697;BME280;20031;43.416;23.232;2022-12-10T13:00:43;98804.41;;;9.13;88.60
33697;BME280;20031;43.416;23.232;2022-12-10T13:03:19;98800.19;;;9.12;89.10
33697;BME280;20031;43.416;23.232;2022-12-10T13:05:48;98804.59;;;9.11;88.64
33697;BME280;20031;43.416;23.232;2022-12-10T13:08:23;98798.41;;;9.12;89.65
33697;BME280;20031;43.416;23.232;2022-12-10T13:13:23;98793.22;;;8.98;89.36
33697;BME280;20031;43.416;23.232;2022-12-10T13:15:49;98779.44;;;8.97;89.92
33697;BME280;20031;43.416;23.232;2022-12-10T13:20:48;98793.31;;;8.90;89.47
33697;BME280;20031;43.416;23.232;2022-12-10T13:39:20;98775.94;;;8.62;90.76
33697;BME280;20031;43.416;23.232;2022-12-10T13:44:59;98779.25;;;8.56;91.70
33697;BME280;20031;43.416;23.232;2022-12-10T13:47:42;98782.34;;;8.51;91.32
33697;BME280;20031;43.416;23.232;2022-12-10T13:55:44;98773.50;;;8.46;91.98
33697;BME280;20031;43.416;23.232;2022-12-10T14:01:09;98758.63;;;8.40;92.42
33697;BME280;20031;43.416;23.232;2022-12-10T14:06:19;98750.94;;;8.32;92.73
33697;BME280;20031;43.416;23.232;2022-12-10T14:09:03;98750.44;;;8.28;92.69
33697;BME280;20031;43.416;23.232;2022-12-10T14:11:35;98749.41;;;8.23;93.23
33697;BME280;20031;43.416;23.232;2022-12-10T14:14:02;98752.47;;;8.18;93.05
33697;BME280;20031;43.416;23.232;2022-12-10T14:16:31;98740.69;;;8.16;93.30
33697;BME280;20031;43.416;23.232;2022-12-10T14:19:03;98740.22;;;8.13;93.55
33697;BME280;20031;43.416;23.232;2022-12-10T14:21:35;98744.94;;;8.09;93.44
33697;BME280;20031;43.416;23.232;2022-12-10T14:24:02;98751.81;;;8.02;93.70
33697;BME280;20031;43.416;23.232;2022-12-10T14:26:33;98767.06;;;7.97;94.05
33697;BME280;20031;43.416;23.232;2022-12-10T14:29:16;98759.97;;;7.91;93.87
33697;BME280;20031;43.416;23.232;2022-12-10T14:31:47;98748.50;;;7.86;94.15
33697;BME280;20031;43.416;23.232;2022-12-10T14:34:18;98753.25;;;7.82;94.10
33697;BME280;20031;43.416;23.232;2022-12-10T14:36:48;98749.56;;;7.77;94.18
33697;BME280;20031;43.416;23.232;2022-12-10T14:39:25;98752.31;;;7.75;94.97
33697;BME280;20031;43.416;23.232;2022-12-10T14:41:53;98746.53;;;7.73;95.15
33697;BME280;20031;43.416;23.232;2022-12-10T14:44:21;98736.16;;;7.73;94.91
33697;BME280;20031;43.416;23.232;2022-12-10T14:46:48;98752.00;;;7.70;95.38
33697;BME280;20031;43.416;23.232;2022-12-10T14:49:23;98759.97;;;7.69;95.18
33697;BME280;20031;43.416;23.232;2022-12-10T14:51:50;98742.00;;;7.67;95.61
33697;BME280;20031;43.416;23.232;2022-12-10T14:54:32;98737.81;;;7.66;95.43
33697;BME280;20031;43.416;23.232;2022-12-10T14:57:01;98751.75;;;7.65;95.66
33697;BME280;20031;43.416;23.232;2022-12-10T14:59:39;98744.94;;;7.64;96.26
33697;BME280;20031;43.416;23.232;2022-12-10T15:02:28;98742.34;;;7.64;96.43